Wolf, WY (82844)

9:11 AM MDT on September 30, 2014 (GMT -0600)
KWYSHERI2 | Change Station
CLOSE
Current Station
Personal Weather Station
Location: Sheridan, WY
Elevation: 3828 ft
Nearby Weather Stations

Elev 3828 ft 44.81 °N, 106.98 °W | Updated 9 minutes ago

Overcast
Overcast
51.7 °F
Feels Like 51.7 °F
N
0.0
Wind Variable Wind from West
Gusts 0.0 mph

Today
High -- | Low -- °F
--% Chance of Precip.
Yesterday
High -- | Low -- °F
Precip. -- in
7:05 AM 6:51 PM
Waxing Crescent, 37% visible
Pressure 29.69 in
Visibility 10.0 miles
Clouds Mostly Cloudy 8500 ft
Dew Point 45 °F
Humidity 78%
Rainfall 0.00 in
Snow Depth 0 in , 2 in , 0 in
UV out of 12
Pollen 2.70 out of 12
Air Quality Not available.
Flu Activity Not available.
METAR KSHR 301453Z AUTO 31007KT 10SM BKN085 11/07 A2971 RMK AO2 SLP052 T01110072 53008

More Conditions Fewer Conditions

Pressure 29.69 in
Visibility 10.0 miles
Clouds Mostly Cloudy 8500 ft
Dew Point 45 °F
Humidity 78%
Rainfall 0.00 in
Snow Depth 0 in , 2 in , 0 in
UV out of 12
Pollen 2.70 out of 12
Air Quality Not available.
Flu Activity Not available.
METAR KSHR 301453Z AUTO 31007KT 10SM BKN085 11/07 A2971 RMK AO2 SLP052 T01110072 53008

More Conditions Fewer Conditions

10-Day Weather Forecast

Almanac

Astronomy

Sep. 30, 2014 Rise Set
Actual Time 7:05 AM MDT 6:51 PM MDT
Civil Twilight 6:36 AM MDT 7:20 PM MDT
Nautical Twilight 6:02 AM MDT 7:54 PM MDT
Astronomical Twilight 5:27 AM MDT 8:28 PM MDT
Moon 1:27 PM MDT 11:12 PM MDT
Length of Visible Light 12h 43m
Length of Day
11h 45m
Tomorrow will be 3m 5s shorter.
Waxing Crescent, 37% of the Moon is Illuminated
Today
Waxing Crescent
Oct 1
First Quarter
Oct 8
Full
Oct 15
Last Quarter
Oct 23
New

Today's Extremes

State Highs State Lows

Community

WunderPhotos

Upload Photos

1,757,657 photos uploaded!

WunderBlogs® & News

By Dr. Jeff Masters
Director of Meteorology, Weather Underground
By Kari Strenfel
Meteorologist, Weather Underground
By Christopher C. Burt
Weather Historian, Weather Underground
September 30, 2014
September 30, 2014
September 30, 2014

Nearby

Snow Depth

Station Depth Elevation
Kelley R.S. 0 in 8180 ft
Willow Creek 2 in 8450 ft
Casper Mountain 0 in 7850 ft
Granite Creek 0 in 6770 ft
Whiskey Park 0 in 8950 ft

Earthquake Activity

City Distance Mag. Time & Date
No recent earthquake activity has been reported nearby.
Minimum magnitude displayed is 2.5.

Coastal Water Temperatures

Place Temperature
No Stations Reporting

Nearby Weather Stations